createdAt,value
2022-10-13T00:02:30.024Z,15.20
2022-10-13T00:07:33.152Z,15.00
2022-10-13T00:12:36.990Z,15.10
2022-10-13T00:17:43.785Z,14.90
2022-10-13T00:22:46.839Z,15.20
2022-10-13T00:27:49.727Z,15.30
2022-10-13T00:32:54.027Z,15.40
2022-10-13T00:37:57.005Z,15.30
2022-10-13T00:43:04.180Z,15.20
2022-10-13T00:48:08.489Z,15.20
2022-10-13T00:53:12.922Z,15.30
2022-10-13T00:58:19.466Z,15.30
2022-10-13T01:03:27.095Z,15.20
2022-10-13T01:08:30.624Z,15.20
2022-10-13T01:13:40.593Z,15.30
2022-10-13T01:18:49.706Z,15.40
2022-10-13T01:24:19.785Z,15.30
2022-10-13T01:29:48.432Z,15.40
2022-10-13T01:34:56.257Z,15.40
2022-10-13T01:40:08.156Z,15.30
2022-10-13T01:45:16.029Z,15.10
2022-10-13T01:50:20.743Z,14.80
2022-10-13T01:55:23.844Z,14.90
2022-10-13T02:00:28.639Z,15.10
2022-10-13T02:05:40.728Z,15.30
2022-10-13T02:10:50.965Z,15.30
2022-10-13T02:15:58.828Z,15.30
2022-10-13T02:21:02.549Z,15.30
2022-10-13T02:26:05.917Z,14.90
2022-10-13T02:31:10.915Z,15.20
2022-10-13T02:36:14.255Z,15.20
2022-10-13T02:41:17.180Z,15.30
2022-10-13T02:46:22.223Z,15.30
2022-10-13T02:51:25.217Z,15.30
2022-10-13T02:56:28.243Z,15.30
2022-10-13T03:01:32.965Z,14.90
2022-10-13T03:06:35.916Z,15.20
2022-10-13T03:11:38.848Z,15.20
2022-10-13T03:16:43.296Z,15.10
2022-10-13T03:21:48.273Z,15.20
2022-10-13T03:26:51.238Z,15.10
2022-10-13T03:31:57.360Z,15.20
2022-10-13T03:37:00.320Z,15.20
2022-10-13T03:42:08.268Z,15.10
2022-10-13T03:47:12.759Z,15.10
2022-10-13T03:52:15.662Z,15.00
2022-10-13T03:57:19.008Z,14.80
2022-10-13T04:02:23.360Z,14.80
2022-10-13T04:07:28.014Z,14.80
2022-10-13T04:12:30.993Z,14.80
2022-10-13T04:17:35.326Z,15.00
2022-10-13T04:22:38.407Z,15.00
2022-10-13T04:27:41.551Z,15.00
2022-10-13T04:32:45.880Z,14.80
2022-10-13T04:37:49.622Z,15.30
2022-10-13T04:42:52.651Z,15.00
2022-10-13T04:47:57.168Z,15.10
2022-10-13T04:53:00.274Z,15.00
2022-10-13T04:58:03.208Z,14.90
2022-10-13T05:03:07.915Z,14.90
2022-10-13T05:08:10.846Z,14.60
2022-10-13T05:13:13.749Z,14.30
2022-10-13T05:18:18.049Z,14.30
2022-10-13T05:23:21.058Z,14.20
2022-10-13T05:28:24.019Z,14.40
2022-10-13T05:33:29.305Z,14.10
2022-10-13T05:38:32.209Z,14.40
2022-10-13T05:43:35.405Z,14.40
2022-10-13T05:48:39.948Z,14.10
2022-10-13T05:53:51.112Z,14.10
2022-10-13T05:59:00.224Z,14.00
2022-10-13T06:04:09.630Z,14.10
2022-10-13T06:09:12.911Z,14.40
2022-10-13T06:14:16.303Z,14.20
2022-10-13T06:19:20.547Z,14.30
2022-10-13T06:24:23.755Z,14.40
2022-10-13T06:29:26.782Z,14.40
2022-10-13T06:34:31.301Z,14.60
2022-10-13T06:39:34.289Z,14.60
2022-10-13T06:44:39.820Z,14.60
2022-10-13T06:49:44.208Z,14.50
2022-10-13T06:54:49.046Z,14.40
2022-10-13T06:59:53.026Z,14.60
2022-10-13T07:04:57.395Z,14.60
2022-10-13T07:10:00.353Z,14.80
2022-10-13T07:15:03.450Z,14.70
2022-10-13T07:20:09.101Z,14.70
2022-10-13T07:25:12.191Z,14.90
2022-10-13T07:30:15.193Z,15.00
2022-10-13T07:35:19.879Z,14.90
2022-10-13T07:40:23.308Z,15.10
2022-10-13T07:45:26.368Z,15.10
2022-10-13T07:50:30.916Z,15.30
2022-10-13T07:55:33.926Z,15.30
2022-10-13T08:00:37.113Z,15.20
2022-10-13T08:05:41.443Z,15.30
2022-10-13T08:10:44.529Z,15.30
2022-10-13T08:15:47.587Z,15.40
2022-10-13T08:20:55.570Z,15.40
2022-10-13T08:26:02.251Z,15.60
2022-10-13T08:31:05.703Z,15.60
2022-10-13T08:36:10.225Z,15.60
2022-10-13T08:41:18.494Z,15.80
2022-10-13T08:46:27.478Z,15.80
2022-10-13T08:51:31.768Z,15.90
2022-10-13T08:56:36.613Z,16.00
2022-10-13T09:01:39.646Z,16.10
2022-10-13T09:06:47.886Z,16.30
2022-10-13T09:11:51.984Z,16.30
2022-10-13T09:16:56.975Z,16.30
2022-10-13T09:22:21.190Z,16.30
2022-10-13T09:27:24.392Z,16.40
2022-10-13T09:32:27.550Z,16.50
2022-10-13T09:37:31.848Z,16.60
2022-10-13T09:42:36.498Z,16.80
2022-10-13T09:47:40.751Z,16.90
2022-10-13T09:52:46.947Z,16.90
2022-10-13T09:57:52.554Z,17.00
2022-10-13T10:02:58.424Z,16.80
2022-10-13T10:08:12.078Z,17.00
2022-10-13T10:13:15.956Z,17.00
2022-10-13T10:18:22.275Z,17.00
2022-10-13T10:23:36.624Z,17.00
2022-10-13T10:29:02.492Z,17.10
2022-10-13T10:34:35.143Z,17.30
2022-10-13T10:39:44.577Z,17.50
2022-10-13T10:44:50.872Z,17.60
2022-10-13T10:49:58.059Z,17.90
2022-10-13T10:55:16.151Z,17.90
2022-10-13T11:00:22.149Z,18.00
2022-10-13T11:05:25.350Z,18.10
2022-10-13T11:10:30.485Z,18.30
2022-10-13T11:15:44.605Z,18.40
2022-10-13T11:20:59.404Z,18.40
2022-10-13T11:26:42.146Z,18.50
2022-10-13T11:31:53.433Z,18.40
2022-10-13T11:37:03.036Z,18.20
2022-10-13T11:42:19.528Z,18.20
2022-10-13T11:47:46.537Z,18.40
2022-10-13T11:53:08.161Z,18.40
2022-10-13T11:58:16.169Z,18.50
2022-10-13T12:03:26.980Z,18.70
2022-10-13T12:08:33.622Z,18.70
2022-10-13T12:13:38.168Z,18.80
2022-10-13T12:18:42.713Z,18.90
2022-10-13T12:23:50.493Z,19.00
2022-10-13T12:28:56.876Z,18.70
2022-10-13T12:34:03.923Z,18.90
2022-10-13T12:39:11.588Z,19.10
2022-10-13T12:44:18.120Z,19.10
2022-10-13T12:49:25.416Z,19.10
2022-10-13T12:54:31.660Z,19.30
2022-10-13T12:59:34.728Z,19.30
2022-10-13T13:04:44.544Z,19.40
2022-10-13T13:10:11.051Z,19.50
2022-10-13T13:15:36.438Z,19.30
2022-10-13T13:20:40.697Z,19.20
2022-10-13T13:25:43.674Z,19.40
2022-10-13T13:30:46.629Z,19.30
2022-10-13T13:35:51.060Z,19.30
2022-10-13T13:40:54.090Z,19.30
2022-10-13T13:45:57.066Z,19.30
2022-10-13T13:51:01.575Z,19.30
2022-10-13T13:56:05.035Z,19.30
2022-10-13T14:01:08.023Z,19.30
2022-10-13T14:06:18.774Z,19.30
2022-10-13T14:11:21.709Z,19.30
2022-10-13T14:16:24.916Z,19.50
2022-10-13T14:21:30.317Z,19.30
2022-10-13T14:26:33.242Z,19.40
2022-10-13T14:31:36.236Z,19.50
2022-10-13T14:36:46.780Z,19.60
2022-10-13T14:41:49.669Z,19.50
2022-10-13T14:46:52.631Z,19.50
2022-10-13T14:51:56.895Z,19.50
2022-10-13T14:57:05.366Z,19.40
2022-10-13T15:02:08.324Z,19.40
2022-10-13T15:07:12.610Z,19.50
2022-10-13T15:12:15.595Z,19.60
2022-10-13T15:17:18.475Z,19.50
2022-10-13T15:22:23.086Z,19.50
2022-10-13T15:27:26.323Z,19.40
2022-10-13T15:32:29.589Z,19.30
2022-10-13T15:37:38.101Z,19.30
2022-10-13T15:42:41.035Z,19.20
2022-10-13T15:47:43.893Z,19.20
2022-10-13T15:52:48.158Z,19.10
2022-10-13T15:57:51.135Z,19.00
2022-10-13T16:02:55.045Z,19.00
2022-10-13T16:08:00.564Z,19.10
2022-10-13T16:13:03.489Z,19.10
2022-10-13T16:18:06.812Z,19.00
2022-10-13T16:23:11.026Z,19.00
2022-10-13T16:28:15.001Z,19.00
2022-10-13T16:33:18.051Z,19.00
2022-10-13T16:38:22.303Z,18.90
2022-10-13T16:43:25.307Z,18.80
2022-10-13T16:48:31.464Z,18.80
2022-10-13T16:53:36.380Z,18.90
2022-10-13T16:58:43.652Z,18.90
2022-10-13T17:03:47.775Z,18.80
2022-10-13T17:08:52.089Z,18.80
2022-10-13T17:13:56.893Z,18.80
2022-10-13T17:18:59.959Z,18.70
2022-10-13T17:24:17.696Z,18.60
2022-10-13T17:29:20.722Z,18.50
2022-10-13T17:34:23.713Z,18.50
2022-10-13T17:39:29.214Z,18.50
2022-10-13T17:44:35.227Z,18.70
2022-10-13T17:49:38.263Z,18.50
2022-10-13T17:54:42.671Z,18.40
2022-10-13T17:59:53.577Z,18.30
2022-10-13T18:04:56.521Z,18.20
2022-10-13T18:10:00.804Z,18.10
2022-10-13T18:15:03.844Z,18.00
2022-10-13T18:20:07.687Z,18.00
2022-10-13T18:25:16.787Z,18.00
2022-10-13T18:30:22.518Z,17.80
2022-10-13T18:35:32.128Z,17.90
2022-10-13T18:40:37.628Z,17.90
2022-10-13T18:45:42.973Z,17.90
2022-10-13T18:50:50.857Z,17.80
2022-10-13T18:56:04.185Z,17.80
2022-10-13T19:01:09.640Z,17.80
2022-10-13T19:06:14.563Z,17.90
2022-10-13T19:11:22.305Z,17.70
2022-10-13T19:16:27.692Z,17.70
2022-10-13T19:21:32.025Z,17.60
2022-10-13T19:26:37.899Z,17.70
2022-10-13T19:31:42.477Z,17.60
2022-10-13T19:36:47.124Z,17.60
2022-10-13T19:41:54.012Z,17.70
2022-10-13T19:46:57.034Z,17.60
2022-10-13T19:52:00.773Z,17.60
2022-10-13T19:57:08.228Z,17.50
2022-10-13T20:02:11.926Z,17.60
2022-10-13T20:07:19.124Z,17.60
2022-10-13T20:12:23.870Z,17.60
2022-10-13T20:17:26.881Z,17.60
2022-10-13T20:22:29.876Z,17.60
2022-10-13T20:27:34.389Z,17.50
2022-10-13T20:32:37.313Z,17.40
2022-10-13T20:37:40.267Z,17.50
2022-10-13T20:43:03.608Z,17.40
2022-10-13T20:48:06.813Z,17.30
2022-10-13T20:53:09.722Z,17.30
2022-10-13T20:58:14.051Z,17.30
2022-10-13T21:03:18.405Z,17.30
2022-10-13T21:08:22.483Z,17.30
2022-10-13T21:13:27.552Z,17.30
2022-10-13T21:18:30.482Z,17.30
2022-10-13T21:23:33.636Z,17.30
2022-10-13T21:28:39.642Z,17.30
2022-10-13T21:33:44.166Z,17.20
2022-10-13T21:38:47.795Z,17.30
2022-10-13T21:43:53.504Z,17.20
2022-10-13T21:48:58.159Z,17.30
2022-10-13T21:54:02.582Z,17.30
2022-10-13T21:59:08.220Z,17.30
2022-10-13T22:04:13.775Z,17.20
2022-10-13T22:09:16.759Z,17.20
2022-10-13T22:14:21.071Z,17.20
2022-10-13T22:19:24.469Z,17.10
2022-10-13T22:24:27.403Z,17.10
2022-10-13T22:29:31.923Z,17.10
2022-10-13T22:34:34.975Z,17.20
2022-10-13T22:39:37.960Z,17.30
2022-10-13T22:44:48.048Z,17.20
2022-10-13T22:49:51.210Z,17.20
2022-10-13T22:54:54.903Z,17.30
2022-10-13T22:59:59.423Z,17.30
2022-10-13T23:05:02.445Z,17.30
2022-10-13T23:10:06.007Z,17.30
2022-10-13T23:15:12.014Z,17.20
2022-10-13T23:20:14.965Z,17.30
2022-10-13T23:25:18.060Z,17.30
2022-10-13T23:30:22.480Z,17.30
2022-10-13T23:35:25.470Z,17.30
2022-10-13T23:40:28.436Z,17.20
2022-10-13T23:45:32.669Z,17.10
2022-10-13T23:50:35.634Z,17.20
2022-10-13T23:55:39.860Z,17.30
